< < Back
Terminal Aerodrome Forecast


Current Version              Previous Versions:   1  2  3  4  5  6  7  8  9  

Terminal Aerodrome Forecast

642
FTUS44 KHUN 022330
TAFHSV
TAF
KHSV 022330Z 0300/0324 VRB03KT P6SM OVC200
     FM031300 35005KT P6SM SCT050 BKN150=



Latest METAR

225
SAUS80 KWBC 040700 RRB
MTRHSV
METAR KHSV 040653Z AUTO 00000KT 8SM R18R/4000VP6000FT CLR 23/21 A2997
RMK AO2 SLP141 T02280211


USA.gov is the U.S. government's official web portal to all federal, state and local government web resources and services.